createdAt,value
2017-07-01T00:00:42.356Z,0
2017-07-01T00:01:42.688Z,0
2017-07-01T00:02:42.368Z,0
2017-07-01T00:03:42.367Z,0
2017-07-01T00:04:42.364Z,0
2017-07-01T00:05:42.729Z,0
2017-07-01T00:06:42.368Z,0
2017-07-01T00:07:42.373Z,0
2017-07-01T00:08:42.686Z,0
2017-07-01T00:09:42.687Z,0
2017-07-01T00:10:42.368Z,0
2017-07-01T00:11:42.685Z,0
2017-07-01T00:12:42.067Z,0
2017-07-01T00:13:42.699Z,0
2017-07-01T00:14:42.068Z,0
2017-07-01T00:15:42.699Z,0
2017-07-01T00:16:42.702Z,0
2017-07-01T00:17:42.698Z,0
2017-07-01T00:18:42.707Z,0
2017-07-01T00:19:42.706Z,0
2017-07-01T00:20:45.614Z,0
2017-07-01T00:21:42.083Z,0
2017-07-01T00:22:42.707Z,0
2017-07-01T00:23:42.397Z,0
2017-07-01T00:24:42.714Z,0
2017-07-01T00:25:42.710Z,0
2017-07-01T00:26:42.402Z,0
2017-07-01T00:27:42.712Z,0
2017-07-01T00:28:42.719Z,0
2017-07-01T00:29:42.420Z,0
2017-07-01T00:30:42.421Z,0
2017-07-01T00:31:42.427Z,0
2017-07-01T00:32:42.118Z,0
2017-07-01T00:33:41.797Z,0
2017-07-01T00:34:42.137Z,0
2017-07-01T00:35:42.793Z,0
2017-07-01T00:36:42.122Z,0
2017-07-01T00:37:42.749Z,0
2017-07-01T00:38:41.807Z,0
2017-07-01T00:39:42.774Z,0
2017-07-01T00:40:42.765Z,0
2017-07-01T00:41:42.443Z,0
2017-07-01T00:42:42.443Z,0
2017-07-01T00:43:42.141Z,0
2017-07-01T00:44:42.450Z,0
2017-07-01T00:45:42.141Z,0
2017-07-01T00:46:42.454Z,0
2017-07-01T00:47:42.444Z,0
2017-07-01T00:48:42.147Z,0
2017-07-01T00:49:42.489Z,0
2017-07-01T00:50:44.446Z,0
2017-07-01T00:51:42.163Z,0
2017-07-01T00:52:42.165Z,0
2017-07-01T00:53:42.473Z,0
2017-07-01T00:54:42.461Z,0
2017-07-01T00:55:41.853Z,0
2017-07-01T00:56:42.452Z,0
2017-07-01T00:57:42.771Z,0
2017-07-01T00:58:42.779Z,0
2017-07-01T00:59:42.157Z,0
2017-07-01T01:00:42.171Z,0
2017-07-01T01:01:42.481Z,0
2017-07-01T01:02:42.507Z,0
2017-07-01T01:03:42.496Z,0
2017-07-01T01:04:42.182Z,0
2017-07-01T01:05:42.495Z,0
2017-07-01T01:06:42.588Z,0
2017-07-01T01:07:42.510Z,0
2017-07-01T01:08:42.503Z,0
2017-07-01T01:09:42.805Z,0
2017-07-01T01:10:41.878Z,0
2017-07-01T01:11:41.867Z,0
2017-07-01T01:12:42.516Z,0
2017-07-01T01:13:42.518Z,0
2017-07-01T01:14:41.884Z,0
2017-07-01T01:15:42.501Z,0
2017-07-01T01:16:42.805Z,0
2017-07-01T01:17:42.807Z,0
2017-07-01T01:18:42.812Z,0
2017-07-01T01:19:42.817Z,0
2017-07-01T01:20:42.811Z,0
2017-07-01T01:21:47.681Z,0
2017-07-01T01:22:42.524Z,0
2017-07-01T01:23:42.864Z,0
2017-07-01T01:24:42.830Z,0
2017-07-01T01:25:42.835Z,0
2017-07-01T01:26:42.203Z,0
2017-07-01T01:27:42.522Z,0
2017-07-01T01:28:42.833Z,0
2017-07-01T01:29:42.833Z,0
2017-07-01T01:30:42.527Z,0
2017-07-01T01:31:42.839Z,0
2017-07-01T01:32:42.229Z,0
2017-07-01T01:33:42.851Z,0
2017-07-01T01:34:42.845Z,0
2017-07-01T01:35:42.848Z,0
2017-07-01T01:36:44.578Z,0
2017-07-01T01:37:42.535Z,0
2017-07-01T01:38:42.539Z,0
2017-07-01T01:39:42.237Z,0
2017-07-01T01:40:42.855Z,0
2017-07-01T01:41:42.854Z,0
2017-07-01T01:42:42.555Z,0
2017-07-01T01:43:42.588Z,0
2017-07-01T01:44:42.557Z,0
2017-07-01T01:45:42.875Z,0
2017-07-01T01:46:42.578Z,0
2017-07-01T01:47:42.878Z,0
2017-07-01T01:48:42.582Z,0
2017-07-01T01:49:42.252Z,0
2017-07-01T01:50:42.881Z,0
2017-07-01T01:51:44.376Z,0
2017-07-01T01:52:42.898Z,0
2017-07-01T01:53:41.964Z,0
2017-07-01T01:54:42.261Z,0
2017-07-01T01:55:42.901Z,0
2017-07-01T01:56:42.881Z,0
2017-07-01T01:57:42.882Z,0
2017-07-01T01:58:42.276Z,0
2017-07-01T01:59:42.288Z,0
2017-07-01T02:00:42.270Z,0
2017-07-01T02:01:42.909Z,0
2017-07-01T02:02:42.604Z,0
2017-07-01T02:03:42.283Z,0
2017-07-01T02:04:42.282Z,0
2017-07-01T02:05:42.602Z,0
2017-07-01T02:06:42.652Z,0
2017-07-01T02:07:42.605Z,0
2017-07-01T02:08:42.294Z,0
2017-07-01T02:09:42.618Z,0
2017-07-01T02:10:42.298Z,0
2017-07-01T02:11:42.293Z,0
2017-07-01T02:12:42.654Z,0
2017-07-01T02:13:42.294Z,0
2017-07-01T02:14:42.620Z,0
2017-07-01T02:15:42.949Z,0
2017-07-01T02:16:42.314Z,0
2017-07-01T02:17:42.617Z,0
2017-07-01T02:18:42.941Z,0
2017-07-01T02:19:42.606Z,0
2017-07-01T02:20:42.926Z,0
2017-07-01T02:21:45.428Z,0
2017-07-01T02:22:42.937Z,0
2017-07-01T02:23:42.947Z,0
2017-07-01T02:24:42.615Z,0
2017-07-01T02:25:42.932Z,0
2017-07-01T02:26:42.640Z,0
2017-07-01T02:27:42.621Z,0
2017-07-01T02:28:42.629Z,0
2017-07-01T02:29:42.940Z,0
2017-07-01T02:30:42.975Z,0
2017-07-01T02:31:42.655Z,0
2017-07-01T02:32:42.945Z,0
2017-07-01T02:33:42.941Z,0
2017-07-01T02:34:42.946Z,0
2017-07-01T02:35:42.636Z,0
2017-07-01T02:36:42.319Z,0
2017-07-01T02:37:42.998Z,0
2017-07-01T02:38:42.951Z,0
2017-07-01T02:39:42.638Z,0
2017-07-01T02:40:42.961Z,0
2017-07-01T02:41:42.952Z,0
2017-07-01T02:42:42.340Z,0
2017-07-01T02:43:42.960Z,0
2017-07-01T02:44:42.664Z,0
2017-07-01T02:45:42.964Z,0
2017-07-01T02:46:42.670Z,0
2017-07-01T02:47:42.657Z,0
2017-07-01T02:48:42.960Z,0
2017-07-01T02:49:42.967Z,0
2017-07-01T02:50:42.661Z,0
2017-07-01T02:51:42.963Z,0
2017-07-01T02:52:43.182Z,0
2017-07-01T02:53:42.999Z,0
2017-07-01T02:54:42.989Z,0
2017-07-01T02:55:42.658Z,0
2017-07-01T02:56:42.988Z,0
2017-07-01T02:57:43.001Z,0
2017-07-01T02:58:42.976Z,0
2017-07-01T02:59:42.974Z,0
2017-07-01T03:00:42.357Z,0
2017-07-01T03:01:42.982Z,0
2017-07-01T03:02:42.976Z,0
2017-07-01T03:03:42.981Z,0
2017-07-01T03:04:42.667Z,0
2017-07-01T03:05:42.995Z,0
2017-07-01T03:06:42.996Z,0
2017-07-01T03:07:43.046Z,0
2017-07-01T03:08:42.684Z,0
2017-07-01T03:09:42.728Z,0
2017-07-01T03:10:43.038Z,0
2017-07-01T03:11:43.009Z,0
2017-07-01T03:12:43.006Z,0
2017-07-01T03:13:43.013Z,0
2017-07-01T03:14:42.387Z,0
2017-07-01T03:15:42.393Z,0
2017-07-01T03:16:43.014Z,0
2017-07-01T03:17:42.697Z,0
2017-07-01T03:18:42.703Z,0
2017-07-01T03:19:42.387Z,0
2017-07-01T03:20:43.017Z,0
2017-07-01T03:21:43.014Z,0
2017-07-01T03:22:48.625Z,0
2017-07-01T03:23:42.715Z,0
2017-07-01T03:24:43.058Z,0
2017-07-01T03:25:43.044Z,0
2017-07-01T03:26:42.709Z,5
2017-07-01T03:27:42.709Z,5
2017-07-01T03:28:42.453Z,5
2017-07-01T03:29:43.034Z,5
2017-07-01T03:30:43.028Z,5
2017-07-01T03:31:43.021Z,5
2017-07-01T03:32:42.717Z,5
2017-07-01T03:33:42.713Z,0
2017-07-01T03:34:43.033Z,0
2017-07-01T03:35:43.030Z,0
2017-07-01T03:36:43.052Z,5
2017-07-01T03:37:42.918Z,5
2017-07-01T03:38:42.726Z,5
2017-07-01T03:39:43.035Z,5
2017-07-01T03:40:42.729Z,5
2017-07-01T03:41:43.042Z,5
2017-07-01T03:42:42.724Z,5
2017-07-01T03:43:42.724Z,5
2017-07-01T03:44:43.053Z,5
2017-07-01T03:45:43.036Z,10
2017-07-01T03:46:42.729Z,10
2017-07-01T03:47:43.043Z,5
2017-07-01T03:48:43.053Z,5
2017-07-01T03:49:42.746Z,5
2017-07-01T03:50:43.057Z,5
2017-07-01T03:51:43.053Z,5
2017-07-01T03:52:47.341Z,5
2017-07-01T03:53:42.733Z,5
2017-07-01T03:54:43.053Z,10
2017-07-01T03:55:43.059Z,10
2017-07-01T03:56:43.061Z,10
2017-07-01T03:57:42.751Z,10
2017-07-01T03:58:42.749Z,15
2017-07-01T03:59:42.796Z,15
2017-07-01T04:00:43.111Z,15
2017-07-01T04:01:43.061Z,15
2017-07-01T04:02:43.097Z,15
2017-07-01T04:03:42.753Z,15
2017-07-01T04:04:43.070Z,15
2017-07-01T04:05:43.061Z,15
2017-07-01T04:06:43.067Z,15
2017-07-01T04:07:43.067Z,15
2017-07-01T04:08:42.861Z,15
2017-07-01T04:09:42.768Z,20
2017-07-01T04:10:43.084Z,20
2017-07-01T04:11:42.765Z,20
2017-07-01T04:12:42.773Z,25
2017-07-01T04:13:42.777Z,25
2017-07-01T04:14:43.099Z,25
2017-07-01T04:15:43.090Z,30
2017-07-01T04:16:43.107Z,30
2017-07-01T04:17:43.085Z,35
2017-07-01T04:18:42.771Z,35
2017-07-01T04:19:42.772Z,40
2017-07-01T04:20:42.782Z,40
2017-07-01T04:21:42.795Z,45
2017-07-01T04:22:42.791Z,45
2017-07-01T04:23:45.254Z,45
2017-07-01T04:24:43.106Z,50
2017-07-01T04:25:43.102Z,55
2017-07-01T04:26:42.806Z,65
2017-07-01T04:27:43.100Z,70
2017-07-01T04:28:43.114Z,70
2017-07-01T04:29:42.806Z,75
2017-07-01T04:30:42.791Z,75
2017-07-01T04:31:42.799Z,70
2017-07-01T04:32:42.513Z,70
2017-07-01T04:33:42.803Z,70
2017-07-01T04:34:42.200Z,65
2017-07-01T04:35:43.110Z,60
2017-07-01T04:36:43.120Z,55
2017-07-01T04:37:42.805Z,55
2017-07-01T04:38:43.980Z,55
2017-07-01T04:39:43.162Z,55
2017-07-01T04:40:43.127Z,55
2017-07-01T04:41:43.134Z,55
2017-07-01T04:42:43.130Z,50
2017-07-01T04:43:42.812Z,50
2017-07-01T04:44:43.132Z,45
2017-07-01T04:45:42.827Z,40
2017-07-01T04:46:42.834Z,40
2017-07-01T04:47:43.174Z,45
2017-07-01T04:48:42.517Z,45
2017-07-01T04:49:42.855Z,45
2017-07-01T04:50:42.837Z,40
2017-07-01T04:51:43.177Z,40
2017-07-01T04:52:42.851Z,40
2017-07-01T04:53:42.589Z,45
2017-07-01T04:54:43.165Z,45
2017-07-01T04:55:42.852Z,50
2017-07-01T04:56:43.189Z,50
2017-07-01T04:57:42.846Z,55
2017-07-01T04:58:42.540Z,55
2017-07-01T04:59:42.229Z,55
2017-07-01T05:00:43.173Z,55
2017-07-01T05:01:43.190Z,55
2017-07-01T05:02:42.873Z,55
2017-07-01T05:03:43.184Z,55
2017-07-01T05:04:42.566Z,55
2017-07-01T05:05:42.563Z,55
2017-07-01T05:06:43.185Z,55
2017-07-01T05:07:42.869Z,60
2017-07-01T05:08:42.578Z,65
2017-07-01T05:09:43.656Z,65
2017-07-01T05:10:42.875Z,70
2017-07-01T05:11:43.207Z,75
2017-07-01T05:12:42.898Z,80
2017-07-01T05:13:43.200Z,80
2017-07-01T05:14:42.939Z,80
2017-07-01T05:15:43.200Z,85
2017-07-01T05:16:42.903Z,85
2017-07-01T05:17:42.583Z,90
2017-07-01T05:18:43.201Z,90
2017-07-01T05:19:42.282Z,90
2017-07-01T05:20:42.897Z,85
2017-07-01T05:21:42.898Z,85
2017-07-01T05:22:42.588Z,80
2017-07-01T05:23:42.900Z,80
2017-07-01T05:24:43.264Z,75
2017-07-01T05:25:42.590Z,75
2017-07-01T05:26:42.911Z,75
2017-07-01T05:27:42.597Z,80
2017-07-01T05:28:41.969Z,90
2017-07-01T05:29:42.290Z,95
2017-07-01T05:30:42.909Z,95
2017-07-01T05:31:42.921Z,100
2017-07-01T05:32:42.913Z,105
2017-07-01T05:33:42.906Z,115
2017-07-01T05:34:43.218Z,125
2017-07-01T05:35:43.219Z,130
2017-07-01T05:36:42.909Z,135
2017-07-01T05:37:43.233Z,140
2017-07-01T05:38:42.911Z,155
2017-07-01T05:39:49.098Z,160
2017-07-01T05:40:42.917Z,160
2017-07-01T05:41:42.922Z,165
2017-07-01T05:42:43.285Z,170
2017-07-01T05:43:43.244Z,175
2017-07-01T05:44:42.937Z,170
2017-07-01T05:45:42.616Z,170
2017-07-01T05:46:43.245Z,165
2017-07-01T05:47:43.263Z,165
2017-07-01T05:48:43.256Z,155
2017-07-01T05:49:42.948Z,155
2017-07-01T05:50:42.939Z,150
2017-07-01T05:51:43.256Z,145
2017-07-01T05:52:43.270Z,140
2017-07-01T05:53:43.269Z,140
2017-07-01T05:54:44.422Z,140
2017-07-01T05:55:42.965Z,145
2017-07-01T05:56:42.960Z,150
2017-07-01T05:57:42.961Z,160
2017-07-01T05:58:43.284Z,150
2017-07-01T05:59:42.962Z,145
2017-07-01T06:00:43.292Z,150
2017-07-01T06:01:42.970Z,150
2017-07-01T06:02:43.290Z,160
2017-07-01T06:03:43.302Z,165
2017-07-01T06:04:42.665Z,175
2017-07-01T06:05:43.296Z,185
2017-07-01T06:06:42.364Z,185
2017-07-01T06:07:42.694Z,180
2017-07-01T06:08:42.675Z,175
2017-07-01T06:09:43.310Z,175
2017-07-01T06:10:43.896Z,175
2017-07-01T06:11:42.998Z,175
2017-07-01T06:12:43.001Z,175
2017-07-01T06:13:42.377Z,175
2017-07-01T06:14:43.338Z,175
2017-07-01T06:15:43.033Z,175
2017-07-01T06:16:43.014Z,175
2017-07-01T06:17:43.017Z,180
2017-07-01T06:18:43.340Z,185
2017-07-01T06:19:43.338Z,205
2017-07-01T06:20:42.723Z,215
2017-07-01T06:21:43.341Z,260
2017-07-01T06:22:43.349Z,265
2017-07-01T06:23:43.345Z,255
2017-07-01T06:24:43.352Z,280
2017-07-01T06:25:45.264Z,255
2017-07-01T06:26:42.422Z,270
2017-07-01T06:27:43.361Z,280
2017-07-01T06:28:43.367Z,255
2017-07-01T06:29:43.378Z,250
2017-07-01T06:30:43.877Z,215
2017-07-01T06:31:43.067Z,210
2017-07-01T06:32:43.387Z,210
2017-07-01T06:33:43.384Z,205
2017-07-01T06:34:43.390Z,205
2017-07-01T06:35:43.409Z,205
2017-07-01T06:36:43.413Z,210
2017-07-01T06:37:42.459Z,210
2017-07-01T06:38:43.410Z,210
2017-07-01T06:39:43.413Z,215
2017-07-01T06:40:45.089Z,215
2017-07-01T06:41:43.111Z,210
2017-07-01T06:42:42.802Z,195
2017-07-01T06:43:43.428Z,190
2017-07-01T06:44:43.111Z,190
2017-07-01T06:45:43.431Z,190
2017-07-01T06:46:42.490Z,195
2017-07-01T06:47:43.439Z,205
2017-07-01T06:48:43.446Z,220
2017-07-01T06:49:43.136Z,230
2017-07-01T06:50:43.135Z,230
2017-07-01T06:51:43.451Z,230
2017-07-01T06:52:42.829Z,235
2017-07-01T06:53:43.142Z,245
2017-07-01T06:54:43.463Z,250
2017-07-01T06:55:46.483Z,260
2017-07-01T06:56:43.479Z,265
2017-07-01T06:57:43.479Z,265
2017-07-01T06:58:43.481Z,270
2017-07-01T06:59:43.210Z,270
2017-07-01T07:00:43.495Z,260
2017-07-01T07:01:42.854Z,260
2017-07-01T07:02:43.487Z,260
2017-07-01T07:03:43.496Z,265
2017-07-01T07:04:43.504Z,265
2017-07-01T07:05:42.879Z,265
2017-07-01T07:06:43.193Z,265
2017-07-01T07:07:43.185Z,270
2017-07-01T07:08:43.508Z,260
2017-07-01T07:09:43.520Z,250
2017-07-01T07:10:43.517Z,245
2017-07-01T07:11:43.263Z,240
2017-07-01T07:12:43.220Z,240
2017-07-01T07:13:43.545Z,245
2017-07-01T07:14:43.226Z,245
2017-07-01T07:15:42.903Z,250
2017-07-01T07:16:43.539Z,245
2017-07-01T07:17:43.544Z,245
2017-07-01T07:18:43.578Z,245
2017-07-01T07:19:43.549Z,245
2017-07-01T07:20:43.550Z,245
2017-07-01T07:21:43.245Z,245
2017-07-01T07:22:43.557Z,245
2017-07-01T07:23:43.270Z,245
2017-07-01T07:24:43.575Z,240
2017-07-01T07:25:43.587Z,240
2017-07-01T07:26:44.022Z,240
2017-07-01T07:27:43.263Z,240
2017-07-01T07:28:43.575Z,240
2017-07-01T07:29:43.269Z,240
2017-07-01T07:30:43.316Z,245
2017-07-01T07:31:43.274Z,245
2017-07-01T07:32:42.694Z,250
2017-07-01T07:33:43.594Z,250
2017-07-01T07:34:42.977Z,245
2017-07-01T07:35:43.326Z,245
2017-07-01T07:36:43.613Z,250
2017-07-01T07:37:43.614Z,245
2017-07-01T07:38:43.621Z,245
2017-07-01T07:39:43.323Z,250
2017-07-01T07:40:43.306Z,240
2017-07-01T07:41:44.164Z,240
2017-07-01T07:42:43.316Z,235
2017-07-01T07:43:43.641Z,235
2017-07-01T07:44:43.637Z,240
2017-07-01T07:45:43.664Z,240
2017-07-01T07:46:43.658Z,230
2017-07-01T07:47:43.342Z,235
2017-07-01T07:48:43.342Z,230
2017-07-01T07:49:43.340Z,230
2017-07-01T07:50:43.662Z,230
2017-07-01T07:51:43.395Z,225
2017-07-01T07:52:43.665Z,225
2017-07-01T07:53:43.675Z,225
2017-07-01T07:54:43.053Z,230
2017-07-01T07:55:43.908Z,230
2017-07-01T07:56:45.729Z,225
2017-07-01T07:57:43.387Z,225
2017-07-01T07:58:43.702Z,225
2017-07-01T07:59:43.706Z,230
2017-07-01T08:00:43.392Z,230
2017-07-01T08:01:43.705Z,230
2017-07-01T08:02:43.399Z,225
2017-07-01T08:03:43.705Z,220
2017-07-01T08:04:43.729Z,220
2017-07-01T08:05:43.723Z,220
2017-07-01T08:06:43.420Z,225
2017-07-01T08:07:43.416Z,230
2017-07-01T08:08:43.417Z,240
2017-07-01T08:09:43.736Z,255
2017-07-01T08:10:43.734Z,265
2017-07-01T08:11:43.751Z,270
2017-07-01T08:12:43.976Z,270
2017-07-01T08:13:43.432Z,265
2017-07-01T08:14:43.475Z,265
2017-07-01T08:15:43.453Z,265
2017-07-01T08:16:43.125Z,270
2017-07-01T08:17:43.771Z,275
2017-07-01T08:18:43.457Z,275
2017-07-01T08:19:43.769Z,285
2017-07-01T08:20:43.781Z,285
2017-07-01T08:21:43.786Z,290
2017-07-01T08:22:43.777Z,295
2017-07-01T08:23:43.471Z,300
2017-07-01T08:24:43.780Z,295
2017-07-01T08:25:43.472Z,290
2017-07-01T08:26:43.496Z,280
2017-07-01T08:27:44.002Z,285
2017-07-01T08:28:43.228Z,300
2017-07-01T08:29:43.799Z,280
2017-07-01T08:30:43.845Z,270
2017-07-01T08:31:43.847Z,260
2017-07-01T08:32:43.504Z,255
2017-07-01T08:33:43.507Z,240
2017-07-01T08:34:43.624Z,235
2017-07-01T08:35:43.530Z,235
2017-07-01T08:36:43.845Z,230
2017-07-01T08:37:43.239Z,245
2017-07-01T08:38:43.839Z,265
2017-07-01T08:39:43.531Z,285
2017-07-01T08:40:43.845Z,290
2017-07-01T08:41:43.552Z,285
2017-07-01T08:42:47.512Z,300
2017-07-01T08:43:43.865Z,305
2017-07-01T08:44:43.555Z,325
2017-07-01T08:45:43.552Z,345
2017-07-01T08:46:43.560Z,355
2017-07-01T08:47:43.559Z,365
2017-07-01T08:48:43.267Z,365
2017-07-01T08:49:43.877Z,365
2017-07-01T08:50:43.586Z,370
2017-07-01T08:51:43.900Z,395
2017-07-01T08:52:43.904Z,410
2017-07-01T08:53:43.910Z,435
2017-07-01T08:54:43.600Z,405
2017-07-01T08:55:43.620Z,455
2017-07-01T08:56:43.597Z,450
2017-07-01T08:57:44.424Z,385
2017-07-01T08:58:43.936Z,420
2017-07-01T08:59:43.964Z,410
2017-07-01T09:00:43.943Z,405
2017-07-01T09:01:43.938Z,430
2017-07-01T09:02:43.630Z,385
2017-07-01T09:03:43.967Z,400
2017-07-01T09:04:43.657Z,400
2017-07-01T09:05:43.653Z,395
2017-07-01T09:06:43.970Z,360
2017-07-01T09:07:43.973Z,330
2017-07-01T09:08:43.974Z,305
2017-07-01T09:09:43.987Z,285
2017-07-01T09:10:43.677Z,265
2017-07-01T09:11:43.992Z,235
2017-07-01T09:12:45.305Z,210
2017-07-01T09:13:43.694Z,200
2017-07-01T09:14:44.011Z,205
2017-07-01T09:15:43.705Z,215
2017-07-01T09:16:44.013Z,220
2017-07-01T09:17:44.022Z,215
2017-07-01T09:18:44.027Z,210
2017-07-01T09:19:43.720Z,200
2017-07-01T09:20:43.724Z,205
2017-07-01T09:21:44.039Z,215
2017-07-01T09:22:44.060Z,210
2017-07-01T09:23:43.738Z,205
2017-07-01T09:24:44.061Z,215
2017-07-01T09:25:44.060Z,230
2017-07-01T09:26:44.067Z,230
2017-07-01T09:27:44.257Z,230
2017-07-01T09:28:43.450Z,230
2017-07-01T09:29:43.758Z,230
2017-07-01T09:30:44.086Z,235
2017-07-01T09:31:43.774Z,235
2017-07-01T09:32:44.102Z,245
2017-07-01T09:33:44.108Z,240
2017-07-01T09:34:44.110Z,235
2017-07-01T09:35:44.102Z,225
2017-07-01T09:36:44.109Z,225
2017-07-01T09:37:43.791Z,230
2017-07-01T09:38:43.500Z,235
2017-07-01T09:39:43.804Z,235
2017-07-01T09:40:43.817Z,235
2017-07-01T09:41:44.135Z,220
2017-07-01T09:42:43.819Z,210
2017-07-01T09:43:44.180Z,200
2017-07-01T09:44:43.518Z,190
2017-07-01T09:45:43.830Z,185
2017-07-01T09:46:43.827Z,185
2017-07-01T09:47:43.845Z,185
2017-07-01T09:48:44.153Z,195
2017-07-01T09:49:44.161Z,210
2017-07-01T09:50:43.540Z,225
2017-07-01T09:51:44.166Z,235
2017-07-01T09:52:43.568Z,240
2017-07-01T09:53:43.865Z,250
2017-07-01T09:54:44.173Z,250
2017-07-01T09:55:44.180Z,245
2017-07-01T09:56:43.874Z,255
2017-07-01T09:57:43.871Z,260
2017-07-01T09:58:44.440Z,270
2017-07-01T09:59:43.885Z,280
2017-07-01T10:00:44.203Z,275
2017-07-01T10:01:44.206Z,270
2017-07-01T10:02:44.208Z,280
2017-07-01T10:03:43.595Z,275
2017-07-01T10:04:43.590Z,290
2017-07-01T10:05:43.603Z,300
2017-07-01T10:06:43.906Z,305
2017-07-01T10:07:44.241Z,305
2017-07-01T10:08:44.228Z,310
2017-07-01T10:09:44.253Z,325
2017-07-01T10:10:43.940Z,355
2017-07-01T10:11:43.939Z,375
2017-07-01T10:12:43.625Z,370
2017-07-01T10:13:44.361Z,355
2017-07-01T10:14:44.252Z,360
2017-07-01T10:15:44.252Z,370
2017-07-01T10:16:43.958Z,370
2017-07-01T10:17:43.954Z,350
2017-07-01T10:18:43.956Z,345
2017-07-01T10:19:43.958Z,345
2017-07-01T10:20:44.313Z,335
2017-07-01T10:21:43.672Z,315
2017-07-01T10:22:43.670Z,315
2017-07-01T10:23:43.984Z,330
2017-07-01T10:24:44.298Z,345
2017-07-01T10:25:43.675Z,355
2017-07-01T10:26:44.323Z,350
2017-07-01T10:27:44.007Z,350
2017-07-01T10:28:46.238Z,340
2017-07-01T10:29:44.018Z,335
2017-07-01T10:30:43.392Z,325
2017-07-01T10:31:43.760Z,325
2017-07-01T10:32:43.718Z,325
2017-07-01T10:33:44.021Z,335
2017-07-01T10:34:44.026Z,360
2017-07-01T10:35:44.123Z,365
2017-07-01T10:36:44.346Z,355
2017-07-01T10:37:44.357Z,350
2017-07-01T10:38:44.360Z,345
2017-07-01T10:39:44.355Z,325
2017-07-01T10:40:44.048Z,295
2017-07-01T10:41:44.077Z,270
2017-07-01T10:42:43.769Z,270
2017-07-01T10:43:44.628Z,285
2017-07-01T10:44:44.088Z,290
2017-07-01T10:45:43.764Z,300
2017-07-01T10:46:43.783Z,335
2017-07-01T10:47:44.099Z,360
2017-07-01T10:48:43.471Z,365
2017-07-01T10:49:43.995Z,360
2017-07-01T10:50:44.103Z,355
2017-07-01T10:51:44.103Z,370
2017-07-01T10:52:44.418Z,385
2017-07-01T10:53:44.118Z,390
2017-07-01T10:54:44.142Z,395
2017-07-01T10:55:44.133Z,400
2017-07-01T10:56:44.465Z,400
2017-07-01T10:57:44.150Z,395
2017-07-01T10:58:47.966Z,405
2017-07-01T10:59:44.470Z,400
2017-07-01T11:00:43.966Z,405
2017-07-01T11:01:44.153Z,410
2017-07-01T11:02:44.468Z,430
2017-07-01T11:03:44.175Z,430
2017-07-01T11:04:44.474Z,425
2017-07-01T11:05:44.183Z,425
2017-07-01T11:06:43.864Z,425
2017-07-01T11:07:44.510Z,425
2017-07-01T11:08:44.559Z,415
2017-07-01T11:09:44.207Z,410
2017-07-01T11:10:44.223Z,430
2017-07-01T11:11:44.223Z,455
2017-07-01T11:12:43.910Z,425
2017-07-01T11:13:44.634Z,420
2017-07-01T11:14:44.540Z,410
2017-07-01T11:15:44.225Z,395
2017-07-01T11:16:44.539Z,390
2017-07-01T11:17:43.611Z,385
2017-07-01T11:18:43.924Z,390
2017-07-01T11:19:43.626Z,390
2017-07-01T11:20:44.568Z,385
2017-07-01T11:21:43.627Z,380
2017-07-01T11:22:44.263Z,390
2017-07-01T11:23:44.274Z,385
2017-07-01T11:24:46.195Z,385
2017-07-01T11:25:44.631Z,390
2017-07-01T11:26:44.607Z,390
2017-07-01T11:27:44.604Z,395
2017-07-01T11:28:44.289Z,410
2017-07-01T11:29:44.255Z,425
2017-07-01T11:30:44.613Z,450
2017-07-01T11:31:44.317Z,400
2017-07-01T11:32:44.321Z,405
2017-07-01T11:33:44.347Z,430
2017-07-01T11:34:44.355Z,410
2017-07-01T11:35:44.659Z,400
2017-07-01T11:36:44.656Z,385
2017-07-01T11:37:44.332Z,385
2017-07-01T11:38:44.360Z,365
2017-07-01T11:39:43.726Z,355
2017-07-01T11:40:44.683Z,385
2017-07-01T11:41:44.360Z,360
2017-07-01T11:42:44.680Z,335
2017-07-01T11:43:44.709Z,355
2017-07-01T11:44:45.054Z,380
2017-07-01T11:45:44.710Z,370
2017-07-01T11:46:44.398Z,360
2017-07-01T11:47:44.395Z,315
2017-07-01T11:48:44.399Z,275
2017-07-01T11:49:44.742Z,245
2017-07-01T11:50:44.720Z,230
2017-07-01T11:51:44.425Z,220
2017-07-01T11:52:44.429Z,210
2017-07-01T11:53:44.743Z,205
2017-07-01T11:54:44.431Z,210
2017-07-01T11:55:44.757Z,210
2017-07-01T11:56:44.759Z,215
2017-07-01T11:57:44.764Z,200
2017-07-01T11:58:44.766Z,190
2017-07-01T11:59:47.820Z,175
2017-07-01T12:00:44.779Z,155
2017-07-01T12:01:44.830Z,155
2017-07-01T12:02:44.470Z,140
2017-07-01T12:03:44.473Z,135
2017-07-01T12:04:44.831Z,130
2017-07-01T12:05:44.184Z,130
2017-07-01T12:06:44.832Z,125
2017-07-01T12:07:44.504Z,120
2017-07-01T12:08:44.501Z,115
2017-07-01T12:09:44.812Z,115
2017-07-01T12:10:44.501Z,120
2017-07-01T12:11:44.824Z,130
2017-07-01T12:12:44.835Z,135
2017-07-01T12:13:44.862Z,140
2017-07-01T12:14:44.560Z,140
2017-07-01T12:15:44.889Z,145
2017-07-01T12:16:44.531Z,155
2017-07-01T12:17:44.866Z,160
2017-07-01T12:18:44.925Z,175
2017-07-01T12:19:44.592Z,180
2017-07-01T12:20:44.564Z,180
2017-07-01T12:21:44.930Z,190
2017-07-01T12:22:44.586Z,200
2017-07-01T12:23:45.098Z,210
2017-07-01T12:24:44.894Z,210
2017-07-01T12:25:44.882Z,215
2017-07-01T12:26:44.894Z,215
2017-07-01T12:27:44.898Z,220
2017-07-01T12:28:44.595Z,230
2017-07-01T12:29:44.580Z,235
2017-07-01T12:30:46.062Z,230
2017-07-01T12:31:44.911Z,235
2017-07-01T12:32:44.910Z,240
2017-07-01T12:33:44.921Z,230
2017-07-01T12:34:44.932Z,205
2017-07-01T12:35:45.029Z,180
2017-07-01T12:36:44.941Z,150
2017-07-01T12:37:44.622Z,130
2017-07-01T12:38:44.952Z,115
2017-07-01T12:39:44.943Z,105
2017-07-01T12:40:44.940Z,100
2017-07-01T12:41:44.336Z,95
2017-07-01T12:42:44.675Z,100
2017-07-01T12:43:44.646Z,100
2017-07-01T12:44:44.649Z,100
2017-07-01T12:45:44.385Z,100
2017-07-01T12:46:44.654Z,100
2017-07-01T12:47:44.659Z,105
2017-07-01T12:48:44.978Z,110
2017-07-01T12:49:44.973Z,120
2017-07-01T12:50:44.980Z,120
2017-07-01T12:51:44.980Z,135
2017-07-01T12:52:45.007Z,145
2017-07-01T12:53:44.683Z,150
2017-07-01T12:54:45.005Z,150
2017-07-01T12:55:44.463Z,150
2017-07-01T12:56:45.006Z,150
2017-07-01T12:57:45.010Z,155
2017-07-01T12:58:45.009Z,165
2017-07-01T12:59:44.719Z,175
2017-07-01T13:00:45.166Z,175
2017-07-01T13:01:44.719Z,175
2017-07-01T13:02:45.116Z,180
2017-07-01T13:03:44.714Z,185
2017-07-01T13:04:44.715Z,200
2017-07-01T13:05:44.403Z,230
2017-07-01T13:06:45.037Z,250
2017-07-01T13:07:45.044Z,285
2017-07-01T13:08:44.425Z,335
2017-07-01T13:09:45.066Z,360
2017-07-01T13:10:44.793Z,355
2017-07-01T13:11:45.162Z,360
2017-07-01T13:12:45.057Z,340
2017-07-01T13:13:44.434Z,325
2017-07-01T13:14:44.752Z,325
2017-07-01T13:15:45.084Z,320
2017-07-01T13:16:44.826Z,315
2017-07-01T13:17:44.761Z,295
2017-07-01T13:18:45.086Z,290
2017-07-01T13:19:45.087Z,295
2017-07-01T13:20:45.094Z,285
2017-07-01T13:21:45.102Z,265
2017-07-01T13:22:45.105Z,260
2017-07-01T13:23:45.185Z,275
2017-07-01T13:24:45.133Z,285
2017-07-01T13:25:45.124Z,280
2017-07-01T13:26:44.511Z,290
2017-07-01T13:27:45.131Z,295
2017-07-01T13:28:45.151Z,295
2017-07-01T13:29:44.854Z,275
2017-07-01T13:30:45.158Z,280
2017-07-01T13:31:45.240Z,290
2017-07-01T13:32:44.857Z,285
2017-07-01T13:33:45.167Z,275
2017-07-01T13:34:45.217Z,265
2017-07-01T13:35:44.851Z,265
2017-07-01T13:36:45.163Z,275
2017-07-01T13:37:44.852Z,285
2017-07-01T13:38:45.170Z,275
2017-07-01T13:39:44.857Z,255
2017-07-01T13:40:44.863Z,245
2017-07-01T13:41:44.876Z,235
2017-07-01T13:42:45.198Z,220
2017-07-01T13:43:45.200Z,205
2017-07-01T13:44:44.908Z,185
2017-07-01T13:45:45.217Z,165
2017-07-01T13:46:46.313Z,170
2017-07-01T13:47:45.013Z,200
2017-07-01T13:48:44.922Z,205
2017-07-01T13:49:45.252Z,205
2017-07-01T13:50:44.924Z,205
2017-07-01T13:51:45.311Z,210
2017-07-01T13:52:44.991Z,225
2017-07-01T13:53:44.623Z,245
2017-07-01T13:54:44.937Z,270
2017-07-01T13:55:44.662Z,270
2017-07-01T13:56:44.960Z,285
2017-07-01T13:57:44.984Z,305
2017-07-01T13:58:45.288Z,310
2017-07-01T13:59:44.999Z,300
2017-07-01T14:00:44.973Z,270
2017-07-01T14:01:45.630Z,255
2017-07-01T14:02:45.308Z,260
2017-07-01T14:03:45.301Z,280
2017-07-01T14:04:44.998Z,295
2017-07-01T14:05:45.320Z,300